KSRC

Searcy Municipal Airport

Searcy, Arkansas, USA
METAR KSRC 190856Z AUTO 00000KT 4SM BR CLR 22/22 A2994 RMK AO2 SLP143 T02220222 55001
Observed Flight Rules
Sep-19 @ 08:56 UTC (9 minutes ago) Marginal Visual Flight Rules
Visibility Clouds Conditions
4 miles
  • Clear skies
  • Mist
Temperatures Readings
Current 22°C / 72°F
Dewpoint 22°C / 72°F
Humidity 100%
Altimeter 29.94" Hg
Pressure 1014.3 hPa
Elevation 80
METAR KSRC 190856Z AUTO 00000KT 4SM BR CLR 22/22 A2994 RMK AO2 SLP143 T02220222 55001
Observed Flight Rules
Sep-19 @ 08:56 UTC
(9 minutes ago)
MVFR
Clouds
  • Clear skies
Conditions
  • Mist
Temperature Dewpoint
22°C / 72°F 22°C / 72°F
Humidity Altimeter Pressure
100% 29.94" Hg 1014.3 hPa